createdAt,value
2017-12-12T00:01:53.467Z,15.00
2017-12-12T00:04:21.010Z,14.60
2017-12-12T00:06:48.507Z,15.45
2017-12-12T00:09:16.018Z,15.98
2017-12-12T00:11:43.524Z,13.25
2017-12-12T00:14:10.986Z,19.33
2017-12-12T00:16:38.498Z,14.18
2017-12-12T00:19:06.007Z,15.50
2017-12-12T00:21:33.516Z,12.23
2017-12-12T00:24:01.063Z,16.45
2017-12-12T00:26:28.574Z,15.90
2017-12-12T00:28:56.126Z,14.40
2017-12-12T00:31:23.643Z,18.20
2017-12-12T00:33:51.155Z,18.95
2017-12-12T00:36:18.660Z,20.90
2017-12-12T00:38:46.187Z,17.80
2017-12-12T00:41:13.735Z,18.02
2017-12-12T00:43:41.250Z,22.83
2017-12-12T00:46:08.755Z,17.15
2017-12-12T00:48:36.270Z,18.08
2017-12-12T00:51:03.771Z,18.48
2017-12-12T00:53:31.238Z,18.08
2017-12-12T00:55:58.744Z,13.48
2017-12-12T00:58:26.253Z,16.52
2017-12-12T01:00:53.804Z,17.62
2017-12-12T01:03:21.303Z,14.82
2017-12-12T01:05:48.839Z,18.90
2017-12-12T01:08:16.316Z,16.27
2017-12-12T01:10:43.838Z,12.10
2017-12-12T01:13:12.270Z,13.35
2017-12-12T01:15:39.799Z,15.95
2017-12-12T01:18:07.331Z,13.45
2017-12-12T01:20:34.827Z,13.85
2017-12-12T01:23:02.322Z,14.43
2017-12-12T01:25:30.671Z,14.00
2017-12-12T01:27:58.161Z,15.63
2017-12-12T01:30:26.406Z,16.52
2017-12-12T01:32:53.906Z,17.25
2017-12-12T01:35:22.205Z,15.07
2017-12-12T01:37:49.761Z,13.60
2017-12-12T01:40:17.298Z,19.83
2017-12-12T01:42:45.547Z,14.30
2017-12-12T01:45:13.058Z,15.48
2017-12-12T01:47:40.542Z,14.60
2017-12-12T01:50:08.090Z,16.00
2017-12-12T01:52:35.612Z,19.90
2017-12-12T01:55:03.158Z,16.37
2017-12-12T01:57:31.402Z,17.02
2017-12-12T01:59:58.887Z,18.27
2017-12-12T02:02:26.403Z,19.35
2017-12-12T02:04:53.923Z,13.85
2017-12-12T02:07:22.221Z,14.25
2017-12-12T02:09:49.768Z,17.15
2017-12-12T02:12:17.305Z,20.12
2017-12-12T02:14:45.567Z,18.15
2017-12-12T02:17:13.084Z,15.60
2017-12-12T02:19:40.588Z,13.15
2017-12-12T02:22:08.081Z,11.60
2017-12-12T02:24:35.583Z,13.60
2017-12-12T02:27:03.075Z,11.57
2017-12-12T02:29:31.336Z,12.05
2017-12-12T02:31:58.840Z,10.20
2017-12-12T02:34:35.966Z,11.52
2017-12-12T02:40:02.231Z,11.43
2017-12-12T02:42:29.835Z,9.48
2017-12-12T02:44:57.374Z,9.60
2017-12-12T02:47:24.927Z,11.98
2017-12-12T02:49:52.450Z,12.55
2017-12-12T02:52:20.022Z,15.30
2017-12-12T02:54:47.519Z,13.10
2017-12-12T02:57:15.067Z,15.95
2017-12-12T02:59:42.583Z,16.75
2017-12-12T03:02:10.171Z,15.77
2017-12-12T03:04:38.454Z,20.37
2017-12-12T03:07:06.694Z,15.70
2017-12-12T03:09:34.154Z,14.05
2017-12-12T03:12:01.642Z,15.20
2017-12-12T03:14:29.169Z,16.85
2017-12-12T03:16:56.665Z,14.87
2017-12-12T03:19:24.173Z,14.45
2017-12-12T03:21:51.663Z,15.68
2017-12-12T03:24:19.154Z,13.02
2017-12-12T03:26:46.663Z,19.12
2017-12-12T03:29:14.184Z,13.05
2017-12-12T03:31:41.739Z,16.75
2017-12-12T03:34:09.259Z,14.27
2017-12-12T03:36:37.551Z,14.80
2017-12-12T03:39:05.903Z,16.87
2017-12-12T03:41:33.397Z,14.48
2017-12-12T03:44:00.890Z,15.98
2017-12-12T03:46:28.379Z,15.23
2017-12-12T03:48:55.886Z,17.90
2017-12-12T03:51:23.397Z,15.43
2017-12-12T03:53:51.063Z,16.55
2017-12-12T03:56:18.578Z,18.12
2017-12-12T03:58:46.091Z,13.20
2017-12-12T04:01:13.593Z,18.65
2017-12-12T04:03:41.063Z,14.38
2017-12-12T04:06:08.611Z,14.45
2017-12-12T04:08:36.061Z,17.67
2017-12-12T04:11:03.542Z,17.12
2017-12-12T04:13:31.031Z,13.27
2017-12-12T04:15:58.513Z,14.05
2017-12-12T04:18:25.994Z,16.80
2017-12-12T04:20:53.506Z,18.02
2017-12-12T04:23:21.784Z,14.23
2017-12-12T04:25:50.126Z,16.02
2017-12-12T04:28:17.670Z,14.68
2017-12-12T04:30:45.149Z,16.73
2017-12-12T04:33:12.714Z,14.52
2017-12-12T04:35:40.262Z,13.43
2017-12-12T04:38:07.774Z,17.87
2017-12-12T04:40:35.322Z,15.82
2017-12-12T04:43:02.828Z,15.63
2017-12-12T04:45:30.323Z,18.75
2017-12-12T04:47:58.448Z,17.35
2017-12-12T04:50:25.952Z,11.07
2017-12-12T04:52:54.230Z,16.95
2017-12-12T04:55:21.690Z,15.73
2017-12-12T04:57:50.023Z,11.38
2017-12-12T05:00:17.510Z,11.05
2017-12-12T05:02:45.004Z,13.55
2017-12-12T05:05:12.499Z,14.05
2017-12-12T05:07:39.988Z,12.45
2017-12-12T05:10:07.541Z,13.88
2017-12-12T05:12:35.070Z,13.65
2017-12-12T05:15:02.608Z,7.70
2017-12-12T05:17:30.089Z,9.45
2017-12-12T05:19:57.595Z,10.65
2017-12-12T05:22:25.136Z,8.75
2017-12-12T05:24:52.606Z,8.38
2017-12-12T05:27:20.194Z,12.32
2017-12-12T05:29:47.685Z,9.68
2017-12-12T05:32:15.246Z,10.10
2017-12-12T05:34:42.765Z,11.20
2017-12-12T05:37:10.302Z,11.93
2017-12-12T05:39:38.561Z,10.82
2017-12-12T05:42:06.073Z,10.52
2017-12-12T05:44:33.575Z,8.65
2017-12-12T05:47:01.066Z,8.15
2017-12-12T05:49:28.604Z,12.10
2017-12-12T05:51:56.132Z,18.70
2017-12-12T05:54:23.611Z,10.15
2017-12-12T05:56:51.120Z,8.80
2017-12-12T05:59:18.629Z,12.07
2017-12-12T06:01:46.121Z,11.27
2017-12-12T06:04:13.674Z,12.00
2017-12-12T06:06:41.982Z,9.70
2017-12-12T06:09:09.469Z,10.95
2017-12-12T06:11:36.999Z,10.18
2017-12-12T06:14:04.522Z,10.70
2017-12-12T06:16:32.794Z,11.98
2017-12-12T06:19:00.282Z,14.00
2017-12-12T06:21:27.843Z,13.85
2017-12-12T06:23:55.359Z,12.57
2017-12-12T06:26:22.883Z,12.43
2017-12-12T06:28:50.366Z,11.95
2017-12-12T06:31:17.849Z,9.63
2017-12-12T06:33:46.112Z,8.43
2017-12-12T06:36:13.598Z,10.70
2017-12-12T06:38:41.092Z,13.90
2017-12-12T06:41:08.554Z,13.40
2017-12-12T06:43:36.060Z,14.00
2017-12-12T06:46:04.383Z,8.98
2017-12-12T06:48:31.903Z,12.02
2017-12-12T06:50:59.466Z,11.48
2017-12-12T06:53:27.047Z,10.88
2017-12-12T06:55:54.550Z,11.10
2017-12-12T06:58:22.061Z,9.73
2017-12-12T07:00:49.684Z,8.88
2017-12-12T07:03:17.977Z,10.15
2017-12-12T07:05:46.248Z,10.27
2017-12-12T07:08:13.806Z,11.75
2017-12-12T07:10:41.366Z,10.23
2017-12-12T07:13:08.884Z,8.45
2017-12-12T07:15:36.952Z,11.82
2017-12-12T07:18:04.599Z,9.05
2017-12-12T07:20:32.124Z,11.45
2017-12-12T07:22:59.687Z,10.73
2017-12-12T07:25:27.216Z,13.05
2017-12-12T07:27:54.708Z,12.30
2017-12-12T07:30:22.258Z,8.50
2017-12-12T07:32:49.896Z,12.32
2017-12-12T07:35:17.462Z,8.50
2017-12-12T07:37:45.721Z,9.23
2017-12-12T07:40:13.201Z,9.70
2017-12-12T07:42:40.703Z,10.52
2017-12-12T07:45:08.243Z,10.38
2017-12-12T07:47:35.856Z,11.45
2017-12-12T07:50:04.249Z,12.75
2017-12-12T07:52:32.541Z,8.75
2017-12-12T07:55:00.855Z,11.60
2017-12-12T07:57:28.413Z,13.98
2017-12-12T07:59:55.984Z,9.15
2017-12-12T08:02:25.410Z,11.25
2017-12-12T08:04:53.009Z,12.43
2017-12-12T08:07:20.474Z,11.65
2017-12-12T08:09:48.016Z,12.02
2017-12-12T08:12:15.596Z,10.18
2017-12-12T08:14:43.155Z,9.20
2017-12-12T08:17:10.689Z,11.68
2017-12-12T08:19:38.972Z,9.07
2017-12-12T08:22:06.541Z,10.25
2017-12-12T08:24:35.050Z,10.77
2017-12-12T08:27:02.641Z,12.23
2017-12-12T08:29:30.158Z,9.48
2017-12-12T08:31:57.750Z,11.18
2017-12-12T08:34:25.282Z,7.95
2017-12-12T08:36:52.839Z,7.47
2017-12-12T08:39:20.771Z,14.10
2017-12-12T08:41:48.298Z,6.28
2017-12-12T08:44:16.467Z,8.77
2017-12-12T08:46:44.026Z,13.68
2017-12-12T08:49:11.549Z,5.57
2017-12-12T08:51:39.092Z,7.22
2017-12-12T08:54:06.647Z,6.65
2017-12-12T08:56:34.931Z,6.07
2017-12-12T08:59:02.495Z,6.87
2017-12-12T09:01:29.987Z,9.00
2017-12-12T09:03:57.507Z,9.40
2017-12-12T09:06:25.029Z,7.15
2017-12-12T09:08:52.581Z,5.75
2017-12-12T09:11:20.066Z,6.95
2017-12-12T09:13:47.685Z,8.70
2017-12-12T09:16:15.199Z,6.03
2017-12-12T09:18:43.473Z,8.13
2017-12-12T09:21:11.738Z,7.28
2017-12-12T09:23:39.261Z,6.75
2017-12-12T09:26:08.312Z,5.87
2017-12-12T09:28:35.796Z,5.65
2017-12-12T09:31:03.265Z,4.95
2017-12-12T09:33:30.767Z,5.78
2017-12-12T09:35:58.279Z,5.00
2017-12-12T09:38:25.750Z,3.35
2017-12-12T09:40:53.272Z,4.03
2017-12-12T09:43:20.753Z,3.75
2017-12-12T09:45:48.235Z,3.55
2017-12-12T09:48:15.747Z,3.25
2017-12-12T09:50:43.303Z,3.85
2017-12-12T09:53:10.801Z,3.92
2017-12-12T09:55:38.314Z,4.57
2017-12-12T09:58:05.817Z,6.62
2017-12-12T10:00:33.320Z,4.87
2017-12-12T10:03:01.620Z,4.85
2017-12-12T10:05:29.148Z,5.70
2017-12-12T10:07:57.390Z,4.25
2017-12-12T10:10:24.871Z,4.22
2017-12-12T10:12:52.344Z,3.37
2017-12-12T10:15:20.622Z,7.20
2017-12-12T10:17:48.945Z,6.10
2017-12-12T10:20:16.454Z,6.93
2017-12-12T10:22:44.702Z,4.55
2017-12-12T10:25:12.211Z,5.68
2017-12-12T10:27:39.691Z,6.57
2017-12-12T10:30:07.972Z,5.35
2017-12-12T10:32:37.810Z,4.07
2017-12-12T10:35:05.307Z,9.98
2017-12-12T10:37:33.561Z,7.47
2017-12-12T10:40:01.119Z,6.18
2017-12-12T10:42:29.472Z,7.60
2017-12-12T10:44:56.994Z,7.95
2017-12-12T10:47:24.505Z,6.55
2017-12-12T10:49:52.070Z,6.57
2017-12-12T10:52:19.587Z,5.40
2017-12-12T10:54:47.083Z,5.90
2017-12-12T10:57:14.565Z,4.95
2017-12-12T10:59:42.091Z,7.22
2017-12-12T11:02:10.623Z,5.68
2017-12-12T11:04:38.181Z,5.60
2017-12-12T11:07:05.767Z,4.47
2017-12-12T11:09:33.351Z,7.30
2017-12-12T11:12:00.947Z,8.43
2017-12-12T11:14:28.639Z,9.38
2017-12-12T11:16:56.318Z,8.65
2017-12-12T11:19:23.890Z,9.18
2017-12-12T11:21:51.512Z,6.40
2017-12-12T11:24:19.050Z,4.72
2017-12-12T11:26:46.616Z,5.80
2017-12-12T11:29:14.222Z,4.97
2017-12-12T11:31:41.882Z,5.37
2017-12-12T11:34:09.543Z,6.57
2017-12-12T11:36:37.114Z,6.28
2017-12-12T11:39:04.635Z,4.12
2017-12-12T11:41:32.173Z,5.80
2017-12-12T11:43:59.744Z,4.65
2017-12-12T11:46:27.292Z,6.05
2017-12-12T11:48:55.601Z,4.32
2017-12-12T11:51:23.138Z,5.12
2017-12-12T11:53:50.718Z,6.03
2017-12-12T11:56:18.292Z,6.95
2017-12-12T11:58:45.894Z,4.95
2017-12-12T12:07:00.862Z,8.48
2017-12-12T12:09:28.380Z,6.90
2017-12-12T12:11:55.898Z,10.82
2017-12-12T12:14:23.410Z,8.23
2017-12-12T12:16:50.982Z,8.20
2017-12-12T12:19:18.502Z,9.57
2017-12-12T12:21:45.985Z,6.35
2017-12-12T12:24:13.467Z,5.85
2017-12-12T12:26:41.047Z,9.35
2017-12-12T12:29:08.566Z,8.60
2017-12-12T12:31:36.092Z,8.52
2017-12-12T12:34:03.607Z,10.70
2017-12-12T12:36:31.128Z,9.90
2017-12-12T12:38:58.639Z,10.60
2017-12-12T12:41:26.132Z,11.27
2017-12-12T12:43:54.462Z,12.37
2017-12-12T12:46:22.025Z,8.10
2017-12-12T12:48:49.540Z,13.15
2017-12-12T12:51:17.075Z,9.05
2017-12-12T12:53:45.441Z,10.32
2017-12-12T12:56:12.973Z,9.50
2017-12-12T12:58:40.512Z,10.00
2017-12-12T13:01:14.011Z,11.02
2017-12-12T13:03:59.236Z,14.68
2017-12-12T13:06:26.785Z,11.65
2017-12-12T13:08:54.318Z,12.75
2017-12-12T13:11:21.939Z,10.02
2017-12-12T13:13:49.676Z,9.35
2017-12-12T13:16:34.379Z,10.45
2017-12-12T13:19:02.011Z,11.45
2017-12-12T13:21:30.390Z,10.98
2017-12-12T13:23:57.965Z,12.63
2017-12-12T13:26:26.246Z,8.57
2017-12-12T13:28:53.811Z,9.00
2017-12-12T13:31:21.349Z,10.60
2017-12-12T13:36:52.357Z,10.52
2017-12-12T13:39:19.881Z,8.65
2017-12-12T13:41:47.397Z,6.12
2017-12-12T13:44:14.939Z,7.95
2017-12-12T13:46:42.498Z,7.10
2017-12-12T13:49:10.049Z,10.00
2017-12-12T13:51:37.546Z,7.60
2017-12-12T13:54:05.088Z,11.35
2017-12-12T13:56:32.660Z,8.27
2017-12-12T13:59:00.170Z,9.65
2017-12-12T14:01:27.674Z,10.23
2017-12-12T14:03:55.282Z,8.43
2017-12-12T14:06:22.792Z,12.02
2017-12-12T14:08:50.457Z,15.15
2017-12-12T14:11:17.951Z,7.15
2017-12-12T14:13:46.237Z,8.70
2017-12-12T14:16:13.805Z,10.00
2017-12-12T14:18:41.404Z,18.67
2017-12-12T14:21:09.004Z,11.35
2017-12-12T14:23:36.567Z,9.75
2017-12-12T14:26:04.136Z,8.20
2017-12-12T14:28:31.649Z,9.82
2017-12-12T14:30:59.250Z,12.75
2017-12-12T14:33:28.471Z,7.55
2017-12-12T14:35:55.957Z,12.02
2017-12-12T14:38:23.480Z,12.37
2017-12-12T14:40:50.994Z,17.25
2017-12-12T14:43:18.541Z,12.45
2017-12-12T14:45:46.133Z,16.45
2017-12-12T14:48:27.894Z,11.40
2017-12-12T14:50:55.481Z,11.40
2017-12-12T14:53:22.996Z,12.63
2017-12-12T14:55:50.518Z,15.40
2017-12-12T15:01:54.273Z,20.25
2017-12-12T15:04:34.214Z,11.65
2017-12-12T15:07:01.760Z,10.98
2017-12-12T15:09:29.324Z,12.15
2017-12-12T15:14:52.346Z,10.18
2017-12-12T15:17:26.254Z,14.63
2017-12-12T15:20:00.159Z,9.20
2017-12-12T15:22:48.871Z,9.30
2017-12-12T15:25:16.447Z,11.63
2017-12-12T15:27:43.946Z,10.73
2017-12-12T15:30:11.607Z,12.43
2017-12-12T15:32:39.155Z,11.55
2017-12-12T15:35:06.709Z,8.73
2017-12-12T15:37:34.225Z,8.75
2017-12-12T15:40:01.734Z,12.75
2017-12-12T15:42:36.503Z,8.45
2017-12-12T15:45:13.522Z,11.00
2017-12-12T15:47:42.973Z,10.02
2017-12-12T15:55:57.190Z,6.95
2017-12-12T15:58:24.723Z,6.75
2017-12-12T16:00:52.303Z,9.95
2017-12-12T16:03:20.611Z,8.98
2017-12-12T16:05:58.941Z,9.00
2017-12-12T16:08:26.684Z,7.93
2017-12-12T16:10:54.230Z,8.23
2017-12-12T16:13:21.816Z,9.23
2017-12-12T16:15:50.144Z,7.18
2017-12-12T16:18:20.056Z,6.72
2017-12-12T16:21:04.484Z,5.32
2017-12-12T17:35:33.449Z,14.87
2017-12-12T17:38:01.104Z,16.67
2017-12-12T17:40:28.736Z,15.75
2017-12-12T17:42:56.350Z,16.55
2017-12-12T17:45:24.776Z,14.25
2017-12-12T17:47:52.371Z,15.45
2017-12-12T17:50:20.053Z,15.35
2017-12-12T17:52:48.016Z,14.43
2017-12-12T17:55:15.737Z,16.37
2017-12-12T17:57:43.427Z,17.98
2017-12-12T18:00:11.077Z,18.30
2017-12-12T18:02:38.858Z,18.08
2017-12-12T18:05:06.547Z,19.25
2017-12-12T18:07:34.956Z,17.80
2017-12-12T18:10:02.586Z,17.92
2017-12-12T18:12:30.233Z,21.00
2017-12-12T18:14:58.855Z,20.62
2017-12-12T18:17:26.510Z,18.15
2017-12-12T18:19:54.103Z,23.90
2017-12-12T18:22:21.730Z,21.40
2017-12-12T18:24:49.440Z,22.58
2017-12-12T18:27:17.052Z,21.30
2017-12-12T18:29:45.386Z,22.27
2017-12-12T18:32:13.065Z,21.62
2017-12-12T18:34:41.408Z,23.25
2017-12-12T18:37:09.054Z,23.25
2017-12-12T18:39:36.659Z,26.42
2017-12-12T18:42:04.285Z,25.75
2017-12-12T18:44:31.876Z,25.98
2017-12-12T18:46:59.447Z,27.30
2017-12-12T18:49:27.016Z,30.95
2017-12-12T18:51:55.463Z,31.92
2017-12-12T18:54:23.035Z,30.65
2017-12-12T18:56:50.679Z,32.58
2017-12-12T18:59:18.262Z,34.58
2017-12-12T19:01:45.888Z,35.05
2017-12-12T19:04:13.510Z,32.85
2017-12-12T19:06:41.924Z,36.15
2017-12-12T19:09:09.544Z,39.38
2017-12-12T19:11:37.947Z,37.83
2017-12-12T19:14:05.578Z,40.22
2017-12-12T19:16:34.022Z,37.53
2017-12-12T19:19:01.627Z,40.65
2017-12-12T19:21:30.045Z,42.92
2017-12-12T19:23:57.738Z,41.00
2017-12-12T19:26:25.366Z,41.08
2017-12-12T19:28:52.958Z,39.38
2017-12-12T19:31:20.548Z,44.65
2017-12-12T19:33:48.989Z,47.10
2017-12-12T19:36:16.682Z,47.80
2017-12-12T19:38:45.026Z,45.97
2017-12-12T19:41:12.727Z,48.03
2017-12-12T19:43:40.355Z,45.58
2017-12-12T19:46:07.941Z,48.55
2017-12-12T19:48:35.554Z,43.58
2017-12-12T19:51:03.090Z,53.28
2017-12-12T19:53:31.473Z,50.70
2017-12-12T20:14:37.373Z,62.65
2017-12-12T20:17:04.889Z,66.15
2017-12-12T20:19:32.421Z,65.85
2017-12-12T20:21:59.983Z,71.22
2017-12-12T20:24:27.498Z,70.68
2017-12-12T20:26:54.982Z,69.30
2017-12-12T20:29:22.551Z,76.25
2017-12-12T20:31:50.095Z,64.35
2017-12-12T20:34:17.648Z,69.75
2017-12-12T20:36:45.170Z,68.07
2017-12-12T20:39:12.709Z,76.47
2017-12-12T20:41:40.266Z,68.60
2017-12-12T20:44:07.768Z,69.55
2017-12-12T20:46:35.298Z,65.40
2017-12-12T20:49:02.788Z,70.75
2017-12-12T20:51:30.294Z,72.85
2017-12-12T20:53:57.807Z,67.87
2017-12-12T20:56:25.358Z,62.00
2017-12-12T20:58:53.641Z,69.93
2017-12-12T21:01:21.132Z,69.70
2017-12-12T21:03:48.652Z,68.22
2017-12-12T21:06:16.152Z,67.05
2017-12-12T21:08:43.655Z,66.65
2017-12-12T21:11:11.901Z,71.15
2017-12-12T21:13:39.383Z,67.70
2017-12-12T21:16:06.905Z,65.50
2017-12-12T21:18:34.418Z,73.50
2017-12-12T21:21:05.990Z,66.28
2017-12-12T21:23:33.894Z,68.80
2017-12-12T21:26:01.594Z,72.30
2017-12-12T21:28:29.323Z,72.22
2017-12-12T21:30:57.022Z,78.68
2017-12-12T21:33:25.517Z,73.82
2017-12-12T21:35:53.237Z,78.80
2017-12-12T21:38:21.455Z,76.00
2017-12-12T21:40:50.820Z,74.55
2017-12-12T21:43:19.294Z,75.80
2017-12-12T21:45:48.646Z,71.65
2017-12-12T21:48:17.511Z,75.65
2017-12-12T21:50:46.620Z,60.83
2017-12-12T21:53:14.405Z,63.17
2017-12-12T21:55:42.112Z,64.85
2017-12-12T21:58:11.434Z,66.37
2017-12-12T22:00:40.551Z,63.87
2017-12-12T22:03:08.571Z,68.47
2017-12-12T22:05:36.233Z,66.40
2017-12-12T22:08:03.930Z,60.83
2017-12-12T22:10:31.625Z,65.05
2017-12-12T22:12:59.380Z,65.12
2017-12-12T22:15:28.361Z,65.12
2017-12-12T22:17:57.351Z,62.40
2017-12-12T22:20:25.052Z,64.62
2017-12-12T22:22:52.749Z,62.92
2017-12-12T22:25:22.187Z,60.45
2017-12-12T22:27:49.909Z,60.63
2017-12-12T22:30:17.595Z,58.17
2017-12-12T22:35:50.714Z,58.65
2017-12-12T22:38:40.119Z,65.10
2017-12-12T22:41:07.931Z,64.35
2017-12-12T22:43:43.593Z,59.30
2017-12-12T22:46:14.952Z,66.20
2017-12-12T22:49:02.217Z,66.78
2017-12-12T22:57:37.536Z,73.72
2017-12-12T23:00:05.193Z,79.03
2017-12-12T23:02:35.168Z,75.18
2017-12-12T23:05:07.199Z,72.70
2017-12-12T23:07:34.986Z,75.28
2017-12-12T23:10:03.119Z,71.95
2017-12-12T23:12:31.603Z,81.63
2017-12-12T23:15:01.207Z,72.00
2017-12-12T23:17:29.616Z,71.75
2017-12-12T23:22:51.431Z,76.15
2017-12-12T23:25:24.972Z,71.70
2017-12-12T23:27:59.196Z,70.97
2017-12-12T23:33:24.442Z,78.90
2017-12-12T23:35:52.056Z,72.75
2017-12-12T23:38:19.695Z,70.55
2017-12-12T23:40:48.024Z,79.60
2017-12-12T23:43:15.629Z,77.07
2017-12-12T23:45:43.339Z,79.85
2017-12-12T23:48:11.527Z,71.95
2017-12-12T23:50:39.194Z,69.70
2017-12-12T23:53:06.797Z,72.12
2017-12-12T23:55:35.192Z,72.00
2017-12-12T23:58:02.767Z,72.72
